CYYT

St. John's International Airport

St. John's, Canada
METAR CYYT 181700Z 07016KT 15SM -RA BKN008 OVC020 05/05 A2985 RMK ST5SC3 SLP114
Observed Flight Rules
Sep-18 @ 17:00 UTC (33 minutes ago) Instrument Flight Rules
Wind Visibility Clouds Conditions
70° at 16 knots 15 miles
  • Broken at 800' AGL
  • Overcast at 2,000' AGL
  • Light Rain
Temperatures Readings
Current 5°C / 41°F
Dewpoint 5°C / 41°F
Humidity 100%
Altimeter 29.85" Hg
Pressure 1011.4 hPa
Elevation 140
METAR CYYT 181700Z 07016KT 15SM -RA BKN008 OVC020 05/05 A2985 RMK ST5SC3 SLP114
Observed Flight Rules
Sep-18 @ 17:00 UTC
(33 minutes ago)
IFR
Wind Visibility
70° at 16 knots 15 miles
Clouds
  • Broken at 800' AGL
  • Overcast at 2,000' AGL
Conditions
  • Light Rain
Temperature Dewpoint
5°C / 41°F 5°C / 41°F
Humidity Altimeter Pressure
100% 29.85" Hg 1011.4 hPa